Time;durP1;ratioP1;P1;durP2;ratioP2;P2;SDS_P1;SDS_P2;PMS_P1;PMS_P2;Temp;Humidity;BMP_temperature;BMP_pressure;BME280_temperature;BME280_humidity;BME280_pressure;Samples;Min_cycle;Max_cycle;Signal;HPM_P1;HPM_P2
2022/07/20 00:00:07;;;;;;;6.25;1.80;;;;;;;24.70;34.19;101354.22;2015798;29;20885;-73
2022/07/20 00:01:16;;;;;;;5.43;1.50;;;;;;;24.68;34.02;101352.59;2016697;29;20041;-72
2022/07/20 00:02:21;;;;;;;6.60;1.55;;;;;;;24.70;33.60;101348.72;2016159;29;26258;-73
2022/07/20 00:03:23;;;;;;;3.90;1.40;;;;;;;24.61;33.66;101343.09;2016612;29;24543;-72
2022/07/20 00:04:25;;;;;;;2.00;1.67;;;;;;;24.58;34.29;101346.91;2016619;29;22952;-72
2022/07/20 00:05:26;;;;;;;3.97;1.50;;;;;;;24.56;34.03;101346.16;2016194;29;20941;-72
2022/07/20 00:06:31;;;;;;;7.70;2.38;;;;;;;24.55;34.47;101341.69;2016575;29;24146;-72
2022/07/20 00:07:33;;;;;;;3.63;1.60;;;;;;;24.54;34.06;101350.91;2023468;29;26262;-72
2022/07/20 00:11:21;;;;;;;4.30;1.85;;;;;;;24.33;34.26;101350.59;2016721;29;25865;-72
2022/07/20 00:12:25;;;;;;;4.30;1.60;;;;;;;24.34;34.62;101347.75;2016530;29;30998;-72
2022/07/20 00:13:27;;;;;;;3.88;1.77;;;;;;;24.28;34.83;101342.75;2017058;29;29026;-72
2022/07/20 00:14:33;;;;;;;2.78;1.63;;;;;;;24.23;34.74;101349.53;2016282;29;28585;-72
2022/07/20 00:15:38;;;;;;;5.28;1.85;;;;;;;24.19;35.31;101346.16;2016709;29;20045;-72
2022/07/20 00:16:40;;;;;;;4.45;1.85;;;;;;;24.12;35.53;101336.63;2015588;29;29430;-72
2022/07/20 00:17:44;;;;;;;4.43;1.80;;;;;;;24.13;35.21;101343.88;2008529;29;35682;-72
2022/07/20 00:18:46;;;;;;;4.82;1.80;;;;;;;24.10;34.89;101345.00;2015771;29;25675;-72
2022/07/20 00:19:48;;;;;;;4.40;1.48;;;;;;;24.01;35.31;101343.81;2016234;29;20210;-72
2022/07/20 00:20:50;;;;;;;3.85;1.70;;;;;;;23.97;35.61;101349.59;2015300;29;34395;-71
2022/07/20 00:21:51;;;;;;;5.03;1.70;;;;;;;23.93;35.61;101339.88;2023499;29;24648;-72
2022/07/20 00:22:53;;;;;;;3.85;1.83;;;;;;;23.93;36.33;101342.59;2016548;29;24662;-71
2022/07/20 00:23:55;;;;;;;5.03;1.67;;;;;;;23.90;36.21;101342.81;2023616;29;22163;-72
2022/07/20 00:24:57;;;;;;;4.05;1.50;;;;;;;23.94;36.06;101342.50;2023571;29;20137;-72
2022/07/20 00:25:59;;;;;;;2.83;1.80;;;;;;;23.92;35.81;101344.47;2015570;29;31514;-71
2022/07/20 00:27:00;;;;;;;5.53;1.48;;;;;;;23.84;36.19;101344.16;2016293;29;21761;-72
2022/07/20 00:28:03;;;;;;;3.67;1.60;;;;;;;23.91;35.87;101342.72;2023969;29;20049;-72
2022/07/20 00:29:04;;;;;;;3.38;2.03;;;;;;;23.84;36.13;101337.81;2023441;29;24571;-72
2022/07/20 00:30:07;;;;;;;4.63;1.70;;;;;;;23.87;36.18;101346.66;2024210;29;20093;-71
2022/07/20 00:31:09;;;;;;;3.00;1.48;;;;;;;23.82;36.34;101340.66;2023580;29;20145;-72
2022/07/20 00:32:11;;;;;;;3.65;1.58;;;;;;;23.78;36.23;101342.69;2023363;29;20874;-72
2022/07/20 00:33:13;;;;;;;3.53;1.90;;;;;;;23.74;36.03;101340.28;2023389;29;23520;-72
2022/07/20 00:34:15;;;;;;;4.60;1.42;;;;;;;23.74;36.16;101337.56;2023750;29;21545;-72
2022/07/20 00:35:17;;;;;;;3.38;1.98;;;;;;;23.75;36.37;101333.84;2015946;29;26231;-72
2022/07/20 00:36:21;;;;;;;3.65;1.70;;;;;;;23.68;36.71;101332.53;2016357;29;30034;-71
2022/07/20 00:37:23;;;;;;;5.72;1.85;;;;;;;23.63;36.53;101336.50;2022848;29;20694;-71
2022/07/20 00:38:26;;;;;;;2.45;1.70;;;;;;;23.63;36.42;101335.59;2015470;29;27537;-71
2022/07/20 00:39:28;;;;;;;3.47;1.60;;;;;;;23.61;36.35;101332.97;2016628;29;20045;-71
2022/07/20 00:40:30;;;;;;;4.28;1.70;;;;;;;23.67;36.33;101328.94;2016543;29;28331;-72
2022/07/20 00:41:32;;;;;;;2.78;1.60;;;;;;;23.66;36.28;101329.06;2016390;29;21834;-71
2022/07/20 00:42:35;;;;;;;3.58;1.80;;;;;;;23.62;36.66;101329.25;2016049;29;27317;-72
2022/07/20 00:44:11;;;;;;;4.63;1.60;;;;;;;23.65;36.53;101325.41;2015930;29;24339;-72
2022/07/20 00:45:15;;;;;;;5.50;1.90;;;;;;;23.71;36.26;101327.72;2019939;29;25652;-73
2022/07/20 00:46:16;;;;;;;8.65;2.05;;;;;;;23.71;36.13;101326.84;2015981;29;21510;-73
2022/07/20 00:47:19;;;;;;;6.18;2.00;;;;;;;23.71;36.48;101324.13;2016651;29;20050;-72
2022/07/20 00:48:21;;;;;;;5.65;1.63;;;;;;;23.68;36.57;101335.28;2023524;29;22586;-73
2022/07/20 00:49:23;;;;;;;2.97;1.77;;;;;;;23.62;36.32;101329.25;2023252;29;27409;-72
2022/07/20 00:50:25;;;;;;;5.82;1.90;;;;;;;23.60;36.68;101331.22;2015994;29;26966;-72
2022/07/20 00:51:27;;;;;;;3.85;1.98;;;;;;;23.55;36.67;101336.16;2015766;29;26532;-72
2022/07/20 00:52:29;;;;;;;5.03;1.85;;;;;;;23.55;36.45;101327.94;2016747;29;20160;-74
2022/07/20 00:53:31;;;;;;;5.53;1.58;;;;;;;23.53;36.67;101329.94;2015471;29;26950;-73
2022/07/20 00:54:33;;;;;;;3.22;1.73;;;;;;;23.53;36.62;101323.59;2016576;29;20910;-73
2022/07/20 00:55:35;;;;;;;3.65;1.83;;;;;;;23.51;36.65;101328.28;2015598;29;24615;-73
2022/07/20 00:56:40;;;;;;;4.55;1.67;;;;;;;23.50;36.64;101323.81;2008543;29;26021;-73
2022/07/20 00:57:42;;;;;;;4.00;1.90;;;;;;;23.52;36.88;101324.56;2015837;29;22899;-73
2022/07/20 00:58:45;;;;;;;3.53;1.75;;;;;;;23.54;36.34;101323.44;2016770;29;28961;-73
2022/07/20 00:59:49;;;;;;;4.75;1.65;;;;;;;23.54;36.64;101326.19;2016810;29;20038;-73
2022/07/20 01:00:51;;;;;;;6.72;1.95;;;;;;;23.46;36.63;101323.16;2023544;29;27401;-73
2022/07/20 01:01:53;;;;;;;4.65;1.98;;;;;;;23.42;36.94;101327.97;2023427;29;20551;-73
2022/07/20 01:02:55;;;;;;;4.65;2.10;;;;;;;23.40;36.95;101326.28;2023109;29;23197;-73
2022/07/20 01:03:58;;;;;;;4.05;1.98;;;;;;;23.38;37.31;101325.53;2022759;29;27275;-72
2022/07/20 01:05:02;;;;;;;3.33;1.80;;;;;;;23.34;37.08;101327.59;2015464;29;28372;-72
2022/07/20 01:06:06;;;;;;;2.70;1.70;;;;;;;23.34;36.97;101327.59;2015670;29;21607;-73
2022/07/20 01:07:08;;;;;;;3.72;1.90;;;;;;;23.32;37.15;101328.72;2016313;29;28657;-72
2022/07/20 01:08:10;;;;;;;4.63;1.85;;;;;;;23.27;37.35;101319.97;2015932;29;32031;-72
2022/07/20 01:09:16;;;;;;;3.10;1.88;;;;;;;23.26;37.21;101316.38;2015406;29;26776;-72
2022/07/20 01:10:21;;;;;;;6.53;2.00;;;;;;;23.27;37.34;101318.09;2015910;29;20049;-72
2022/07/20 01:11:23;;;;;;;2.67;1.67;;;;;;;23.24;37.28;101319.22;2015918;29;21618;-72
2022/07/20 01:12:24;;;;;;;3.42;2.05;;;;;;;23.33;37.37;101322.25;2015440;29;27556;-71
2022/07/20 01:13:26;;;;;;;3.10;1.55;;;;;;;23.25;37.27;101312.75;2016253;29;33625;-73
2022/07/20 01:14:28;;;;;;;8.40;2.08;;;;;;;23.21;37.49;101313.09;2023284;29;22952;-75
2022/07/20 01:15:31;;;;;;;5.07;2.08;;;;;;;23.19;37.45;101310.44;2021970;29;23663;-74
2022/07/20 01:16:34;;;;;;;4.00;1.83;;;;;;;23.17;37.46;101308.81;2016486;29;20049;-73
2022/07/20 01:17:36;;;;;;;3.53;1.60;;;;;;;23.15;37.46;101314.38;2015451;29;25559;-72
2022/07/20 01:18:43;;;;;;;3.22;1.70;;;;;;;23.12;37.63;101311.00;2015605;29;26853;-72
2022/07/20 01:19:45;;;;;;;2.97;1.80;;;;;;;23.14;37.50;101314.50;2023374;29;22520;-72
2022/07/20 01:20:50;;;;;;;2.25;1.33;;;;;;;23.09;37.81;101314.81;2023259;29;27901;-72
2022/07/20 01:21:51;;;;;;;3.47;1.40;;;;;;;23.08;37.54;101303.97;2016684;29;20233;-72
2022/07/20 01:22:53;;;;;;;3.65;1.83;;;;;;;23.04;37.74;101300.56;2015893;29;29553;-72
2022/07/20 01:23:55;;;;;;;5.03;1.67;;;;;;;23.06;37.96;101298.66;2015588;29;23557;-72
2022/07/20 01:24:58;;;;;;;3.88;1.77;;;;;;;23.12;37.58;101306.41;2015468;29;20105;-72
2022/07/20 01:26:00;;;;;;;6.93;2.00;;;;;;;23.08;37.87;101302.16;2023018;29;32271;-72
2022/07/20 01:27:04;;;;;;;5.45;1.52;;;;;;;23.03;38.05;101301.56;2015703;29;33067;-72
2022/07/20 01:28:09;;;;;;;3.83;1.58;;;;;;;22.96;37.92;101305.69;2016172;29;20122;-71
2022/07/20 01:29:13;;;;;;;3.40;1.70;;;;;;;22.98;38.08;101303.72;2015513;29;22329;-71
2022/07/20 01:30:15;;;;;;;6.63;1.52;;;;;;;22.94;38.09;101310.38;2015179;29;26610;-72
2022/07/20 01:31:17;;;;;;;2.50;1.65;;;;;;;22.83;38.09;101305.66;2015636;29;23094;-71
2022/07/20 01:32:19;;;;;;;4.30;1.95;;;;;;;22.80;38.17;101308.59;2016254;29;29518;-71
2022/07/20 01:33:21;;;;;;;4.40;1.85;;;;;;;22.75;38.51;101303.44;2015899;29;26713;-71
2022/07/20 01:34:23;;;;;;;2.70;1.60;;;;;;;22.72;38.33;101308.25;2015705;29;28507;-71
2022/07/20 01:35:25;;;;;;;3.67;1.70;;;;;;;22.65;38.93;101310.53;2016240;29;21898;-71
2022/07/20 01:36:26;;;;;;;4.13;1.25;;;;;;;22.58;38.74;101298.28;2016512;29;26838;-71
2022/07/20 01:37:29;;;;;;;4.63;1.77;;;;;;;22.52;38.68;101307.72;2015328;29;25600;-71
2022/07/20 01:38:31;;;;;;;4.25;1.70;;;;;;;22.43;38.93;101305.63;2015760;29;23475;-71
2022/07/20 01:39:33;;;;;;;4.05;1.60;;;;;;;22.37;39.34;101306.91;2023194;29;21078;-73
2022/07/20 01:40:35;;;;;;;4.95;1.75;;;;;;;22.32;39.48;101309.06;2016411;29;27232;-70
2022/07/20 01:41:37;;;;;;;3.00;1.70;;;;;;;22.25;39.57;101308.59;2015854;29;27224;-71
2022/07/20 01:42:39;;;;;;;1.92;1.65;;;;;;;22.18;39.23;101311.81;2016839;29;28027;-71
2022/07/20 01:43:44;;;;;;;2.88;1.70;;;;;;;22.21;39.70;101309.75;2016357;29;20053;-73
2022/07/20 01:44:46;;;;;;;3.47;1.40;;;;;;;22.12;39.80;101311.22;2016469;29;20160;-73
2022/07/20 01:45:50;;;;;;;5.13;2.03;;;;;;;22.11;40.08;101309.50;2015564;29;30639;-72
2022/07/20 01:46:54;;;;;;;1.83;1.10;;;;;;;22.06;40.00;101308.06;2015410;29;37007;-72
2022/07/20 01:47:56;;;;;;;2.97;1.50;;;;;;;22.07;39.52;101312.50;2007952;29;26221;-72
2022/07/20 01:48:59;;;;;;;4.95;1.83;;;;;;;22.02;40.13;101301.94;2015333;29;38045;-72
2022/07/20 01:50:00;;;;;;;3.70;1.58;;;;;;;22.00;40.45;101303.88;2015174;29;20041;-72
2022/07/20 01:51:02;;;;;;;5.75;2.00;;;;;;;22.03;40.01;101298.22;2016429;29;23859;-71
2022/07/20 01:52:04;;;;;;;6.50;1.60;;;;;;;21.98;40.56;101304.94;2016014;29;20823;-71
2022/07/20 01:53:07;;;;;;;4.90;1.65;;;;;;;21.95;40.49;101306.03;2015996;29;26307;-71
2022/07/20 01:54:10;;;;;;;2.38;1.50;;;;;;;21.95;40.12;101307.84;2015903;29;24669;-71
2022/07/20 01:55:12;;;;;;;3.33;1.67;;;;;;;21.87;40.62;101301.06;2016241;29;26006;-71
2022/07/20 01:56:14;;;;;;;2.25;1.45;;;;;;;21.83;40.70;101296.78;2016117;29;20870;-71
2022/07/20 01:57:16;;;;;;;3.08;1.92;;;;;;;21.79;40.63;101299.81;2023014;29;34991;-71
2022/07/20 01:58:22;;;;;;;4.15;1.88;;;;;;;21.78;40.58;101304.38;2022587;29;20045;-71
2022/07/20 01:59:24;;;;;;;5.53;1.77;;;;;;;21.73;40.45;101301.06;2014799;29;25126;-72
2022/07/20 02:00:26;;;;;;;4.00;1.88;;;;;;;21.82;40.51;101305.06;2015180;29;26173;-72
2022/07/20 02:01:31;;;;;;;2.70;1.65;;;;;;;21.83;41.25;101299.50;2023353;29;20046;-71
2022/07/20 02:02:32;;;;;;;6.65;1.83;;;;;;;21.77;40.58;101296.28;2022958;29;25474;-72
2022/07/20 02:03:35;;;;;;;4.82;1.50;;;;;;;21.70;40.84;101302.16;2023034;29;20863;-71
2022/07/20 02:04:37;;;;;;;4.90;1.95;;;;;;;21.68;41.46;101297.78;2016129;29;20946;-67
2022/07/20 02:05:41;;;;;;;5.93;2.10;;;;;;;21.63;41.51;101295.34;2008856;29;20174;-65
2022/07/20 02:06:43;;;;;;;6.82;1.75;;;;;;;21.60;41.70;101295.53;2007982;29;26382;-65
2022/07/20 02:07:45;;;;;;;6.30;2.05;;;;;;;21.63;41.31;101295.34;2016177;29;25263;-65
2022/07/20 02:08:47;;;;;;;2.55;1.38;;;;;;;21.61;41.27;101300.03;2016092;29;20895;-62
2022/07/20 02:09:50;;;;;;;3.28;1.88;;;;;;;21.57;41.08;101289.41;2016057;29;20157;-68
2022/07/20 02:10:52;;;;;;;1.77;1.55;;;;;;;21.58;41.41;101289.31;2015844;29;30196;-63
2022/07/20 02:11:54;;;;;;;9.18;1.83;;;;;;;21.59;41.38;101292.91;2015528;29;22784;-66
2022/07/20 02:12:56;;;;;;;7.10;1.50;;;;;;;21.64;41.75;101288.03;2015514;29;20173;-67
2022/07/20 02:14:00;;;;;;;7.40;1.98;;;;;;;21.68;41.55;101289.63;2022924;29;27707;-67
2022/07/20 02:15:05;;;;;;;6.72;1.90;;;;;;;21.67;40.89;101286.00;2015933;29;20254;-67
2022/07/20 02:16:16;;;;;;;5.10;1.90;;;;;;;21.82;40.90;101288.69;2015961;29;29018;-69
2022/07/20 02:17:18;;;;;;;2.95;1.80;;;;;;;21.82;40.53;101292.31;2016213;29;21096;-64
2022/07/20 02:18:19;;;;;;;2.53;1.42;;;;;;;21.81;40.61;101285.09;2016121;29;22402;-63
2022/07/20 02:19:21;;;;;;;2.97;1.63;;;;;;;21.82;40.90;101283.25;2014794;29;20203;-73
2022/07/20 02:20:24;;;;;;;5.07;1.70;;;;;;;21.91;40.84;101286.28;2015818;29;20493;-74
2022/07/20 02:21:29;;;;;;;3.47;2.08;;;;;;;21.90;40.41;101281.78;2015038;29;30553;-73
2022/07/20 02:22:30;;;;;;;5.05;1.40;;;;;;;;;;2008319;29;27389;-73
2022/07/20 02:23:33;;;;;;;2.55;1.70;;;;;;;21.86;40.16;101282.97;2015566;29;20042;-73
2022/07/20 02:24:35;;;;;;;2.53;1.85;;;;;;;21.85;40.29;101292.09;2015551;29;27143;-73
2022/07/20 02:25:37;;;;;;;4.63;1.50;;;;;;;21.84;40.20;101298.56;2015422;29;22097;-73
2022/07/20 02:26:41;;;;;;;4.13;1.63;;;;;;;21.79;40.19;101300.69;2015581;29;26460;-73
2022/07/20 02:27:43;;;;;;;5.30;1.50;;;;;;;21.74;40.66;101300.97;2015364;29;30350;-73
2022/07/20 02:28:45;;;;;;;5.97;1.60;;;;;;;21.69;40.52;101294.06;2016333;29;20127;-73
2022/07/20 02:29:48;;;;;;;3.03;1.50;;;;;;;21.62;40.68;101299.03;2015393;29;29435;-73
2022/07/20 02:30:51;;;;;;;3.58;1.73;;;;;;;21.61;41.18;101291.84;2015579;29;29609;-73
2022/07/20 02:31:56;;;;;;;5.38;2.03;;;;;;;21.56;41.48;101288.53;2022396;29;27617;-73
2022/07/20 02:32:57;;;;;;;5.03;1.75;;;;;;;21.52;41.20;101298.75;2022754;29;22971;-71
2022/07/20 02:34:01;;;;;;;3.15;1.63;;;;;;;21.46;41.36;101298.25;2016030;29;20138;-72
2022/07/20 02:35:06;;;;;;;4.00;1.83;;;;;;;21.39;41.91;101291.41;2015619;29;23367;-70
2022/07/20 02:36:08;;;;;;;4.93;2.05;;;;;;;21.40;41.47;101295.91;2007908;29;29279;-71
2022/07/20 02:37:12;;;;;;;4.10;1.92;;;;;;;21.34;42.36;101297.16;2015263;29;27276;-71
2022/07/20 02:38:14;;;;;;;3.70;2.03;;;;;;;21.32;41.91;101297.25;2015604;29;24965;-71
2022/07/20 02:39:16;;;;;;;2.22;1.10;;;;;;;21.30;41.99;101299.22;2015968;29;28351;-71
2022/07/20 02:40:18;;;;;;;2.65;1.58;;;;;;;21.27;41.72;101293.06;2016400;29;34350;-71
2022/07/20 02:41:20;;;;;;;2.25;1.63;;;;;;;21.21;41.74;101299.78;2016711;29;31944;-71
2022/07/20 02:42:21;;;;;;;3.40;1.60;;;;;;;21.15;42.63;101300.16;2023834;29;23220;-71
2022/07/20 02:43:26;;;;;;;2.90;1.38;;;;;;;21.09;42.14;101304.13;2024392;29;25074;-72
2022/07/20 02:44:27;;;;;;;3.95;1.35;;;;;;;21.04;42.31;101302.66;2016876;29;26544;-72
2022/07/20 02:45:33;;;;;;;4.10;1.90;;;;;;;20.97;43.00;101300.28;2024177;29;28447;-72
2022/07/20 02:46:38;;;;;;;4.13;1.90;;;;;;;20.94;42.75;101294.16;2023955;29;28650;-72
2022/07/20 02:47:46;;;;;;;6.05;1.80;;;;;;;20.87;43.07;101299.13;2024490;29;20037;-73
2022/07/20 02:48:48;;;;;;;2.75;1.63;;;;;;;20.85;43.25;101298.31;2023410;29;25773;-71
2022/07/20 02:49:50;;;;;;;2.92;1.50;;;;;;;20.82;43.51;101298.53;2017362;29;26509;-73
2022/07/20 02:50:52;;;;;;;4.57;1.80;;;;;;;20.76;43.64;101304.31;2016961;29;23446;-71
2022/07/20 02:51:54;;;;;;;6.07;1.58;;;;;;;20.75;43.36;101308.03;2017097;29;24651;-71
2022/07/20 02:52:56;;;;;;;3.28;1.48;;;;;;;20.73;43.83;101299.06;2016777;29;25628;-71
2022/07/20 02:53:58;;;;;;;3.70;1.63;;;;;;;20.71;43.25;101301.88;2017089;29;31739;-71
2022/07/20 02:55:00;;;;;;;3.28;1.52;;;;;;;20.69;43.93;101302.94;2016125;29;23798;-71
2022/07/20 02:56:02;;;;;;;3.80;1.98;;;;;;;20.68;43.99;101306.63;2017270;29;20934;-71
2022/07/20 02:57:04;;;;;;;3.42;1.83;;;;;;;20.64;43.40;101296.88;2017211;29;22766;-71
2022/07/20 02:58:07;;;;;;;4.18;1.50;;;;;;;20.63;44.00;101300.59;2016971;29;25289;-71
2022/07/20 02:59:11;;;;;;;7.93;2.00;;;;;;;20.60;44.26;101301.59;2017225;29;21836;-71
2022/07/20 03:00:13;;;;;;;3.95;1.83;;;;;;;20.58;44.55;101300.81;2023957;29;36218;-71
2022/07/20 03:01:17;;;;;;;2.78;1.77;;;;;;;20.54;44.45;101289.22;2024290;29;20093;-72
2022/07/20 03:02:19;;;;;;;2.80;2.00;;;;;;;20.52;44.87;101296.63;2023739;29;21526;-72
2022/07/20 03:03:21;;;;;;;2.65;1.90;;;;;;;20.49;45.06;101299.50;2016484;29;23151;-71
2022/07/20 03:04:23;;;;;;;3.58;2.03;;;;;;;20.45;45.88;101289.78;2016924;29;20042;-72
2022/07/20 03:05:25;;;;;;;2.53;1.90;;;;;;;20.44;45.71;101298.94;2016635;29;29579;-72
2022/07/20 03:06:27;;;;;;;3.60;1.50;;;;;;;20.39;45.42;101296.47;2017134;29;26794;-71
2022/07/20 03:07:28;;;;;;;3.15;1.58;;;;;;;20.35;45.35;101294.00;2017185;29;20859;-72
2022/07/20 03:08:30;;;;;;;2.65;1.42;;;;;;;20.30;45.12;101296.13;2017021;29;28876;-71
2022/07/20 03:09:33;;;;;;;4.47;1.77;;;;;;;20.26;45.83;101294.53;2017296;29;20050;-72
2022/07/20 03:10:36;;;;;;;3.05;1.52;;;;;;;20.23;45.92;101300.19;2016059;29;31400;-72
2022/07/20 03:11:37;;;;;;;2.80;1.85;;;;;;;20.19;45.26;101294.91;2008565;29;35377;-71
2022/07/20 03:12:39;;;;;;;1.63;1.30;;;;;;;20.18;45.58;101289.56;2017272;29;20153;-72
2022/07/20 03:13:43;;;;;;;4.13;1.40;;;;;;;20.16;46.01;101294.22;2017137;29;20029;-72
2022/07/20 03:14:45;;;;;;;3.40;1.90;;;;;;;20.12;45.86;101298.09;2017240;29;25675;-71
2022/07/20 03:15:47;;;;;;;5.95;2.03;;;;;;;20.20;46.33;101296.66;2016568;29;27001;-72
2022/07/20 03:16:51;;;;;;;5.00;1.85;;;;;;;20.13;45.82;101292.53;2016954;29;29050;-72
2022/07/20 03:17:54;;;;;;;6.63;1.73;;;;;;;20.10;46.17;101284.56;2016838;29;26895;-72
2022/07/20 03:18:56;;;;;;;3.20;1.70;;;;;;;20.07;46.32;101297.47;2024513;29;20037;-72
2022/07/20 03:19:58;;;;;;;3.70;2.00;;;;;;;20.09;45.92;101292.81;2024045;29;20049;-71
2022/07/20 03:21:00;;;;;;;5.68;1.80;;;;;;;20.09;45.89;101290.09;2016805;29;26557;-71
2022/07/20 03:22:04;;;;;;;2.88;1.77;;;;;;;20.08;45.38;101291.94;2015964;29;20819;-72
2022/07/20 03:23:06;;;;;;;3.72;1.70;;;;;;;20.10;46.05;101287.28;2016768;29;20165;-72
2022/07/20 03:24:08;;;;;;;4.20;1.40;;;;;;;20.10;45.95;101284.56;2041963;23;20749;-70
2022/07/20 03:25:12;;;;;;;4.43;1.77;;;;;;;20.14;45.64;101286.13;2027514;29;21822;-70
2022/07/20 03:26:15;;;;;;;5.03;1.52;;;;;;;20.11;45.29;101280.00;2025006;29;20117;-68
2022/07/20 03:27:17;;;;;;;4.93;1.60;;;;;;;20.10;45.44;101281.84;2024665;29;26455;-69
2022/07/20 03:28:19;;;;;;;5.13;1.98;;;;;;;20.10;45.64;101284.56;2024095;29;21910;-69
2022/07/20 03:29:21;;;;;;;16.55;2.10;;;;;;;20.08;46.06;101288.31;2023977;29;28756;-69
2022/07/20 03:30:26;;;;;;;2.95;1.75;;;;;;;20.08;45.71;101291.03;2024791;29;20857;-69
2022/07/20 03:31:28;;;;;;;8.05;2.10;;;;;;;20.09;45.27;101288.25;2023921;29;20188;-69
2022/07/20 03:32:31;;;;;;;4.00;2.08;;;;;;;20.09;45.58;101292.81;2015370;29;29341;-69
2022/07/20 03:33:32;;;;;;;3.22;1.77;;;;;;;20.06;45.86;101288.41;2001470;29;23444;-69
2022/07/20 03:34:36;;;;;;;3.75;1.95;;;;;;;20.03;45.79;101288.59;2009426;29;20046;-69
2022/07/20 03:35:38;;;;;;;3.47;1.50;;;;;;;19.99;45.64;101284.28;2017141;29;24390;-69
2022/07/20 03:36:40;;;;;;;4.32;1.83;;;;;;;20.05;45.77;101288.53;2016721;29;27548;-69
2022/07/20 03:37:42;;;;;;;4.43;1.60;;;;;;;20.04;45.88;101287.63;2017052;29;20046;-69
2022/07/20 03:38:44;;;;;;;4.47;1.40;;;;;;;20.02;45.37;101292.28;2016793;29;27483;-69
2022/07/20 03:39:47;;;;;;;2.08;1.80;;;;;;;20.01;45.78;101285.97;2016465;29;20781;-69
2022/07/20 03:40:49;;;;;;;4.50;2.00;;;;;;;20.09;46.51;101288.25;2008563;29;24234;-68
2022/07/20 03:41:51;;;;;;;5.75;1.85;;;;;;;20.17;46.15;101285.97;2015823;29;36060;-69
2022/07/20 03:42:53;;;;;;;5.28;1.80;;;;;;;20.19;45.38;101294.91;2017140;29;20090;-69
2022/07/20 03:43:55;;;;;;;5.57;2.20;;;;;;;20.20;45.94;101290.34;2016317;29;21102;-69
2022/07/20 03:44:56;;;;;;;3.10;1.80;;;;;;;20.20;45.60;101290.34;2015890;29;26694;-69
2022/07/20 03:46:01;;;;;;;3.40;2.05;;;;;;;20.24;45.07;101296.47;2015913;29;29570;-69
2022/07/20 03:47:02;;;;;;;5.43;1.70;;;;;;;20.24;45.77;101288.31;2015600;29;35891;-69
2022/07/20 03:48:07;;;;;;;4.72;1.70;;;;;;;20.28;45.55;101296.22;2024213;29;21368;-69
2022/07/20 03:49:08;;;;;;;3.38;1.70;;;;;;;20.33;45.65;101285.97;2015956;29;20241;-69
2022/07/20 03:50:10;;;;;;;7.47;1.75;;;;;;;20.38;45.06;101299.28;2016380;29;20458;-69
2022/07/20 03:51:12;;;;;;;3.05;1.98;;;;;;;20.39;44.91;101306.47;2015327;29;32812;-69
2022/07/20 03:52:19;;;;;;;3.13;1.70;;;;;;;20.45;45.17;101302.53;2016704;29;31319;-69
2022/07/20 03:53:21;;;;;;;3.72;1.65;;;;;;;20.48;44.99;101294.19;2016724;29;20038;-69
2022/07/20 03:54:23;;;;;;;4.38;1.77;;;;;;;20.50;45.06;101301.28;2017055;29;22283;-69
2022/07/20 03:55:24;;;;;;;6.00;1.85;;;;;;;20.52;44.67;101299.34;2019540;29;26186;-69
2022/07/20 03:56:26;;;;;;;9.07;1.92;;;;;;;20.56;44.69;101305.47;2017141;29;24443;-69
2022/07/20 03:57:28;;;;;;;6.00;1.60;;;;;;;20.58;45.16;101308.97;2016923;29;20053;-69
2022/07/20 03:58:30;;;;;;;5.47;1.85;;;;;;;20.60;44.88;101298.88;2016961;29;23456;-69
2022/07/20 03:59:33;;;;;;;2.80;1.60;;;;;;;20.64;44.69;101299.59;2015838;29;25932;-69
2022/07/20 04:00:35;;;;;;;6.13;1.90;;;;;;;20.69;44.60;101297.47;2017312;29;20180;-69
2022/07/20 04:01:39;;;;;;;3.42;1.60;;;;;;;20.73;44.88;101308.09;2015697;29;32145;-69
2022/07/20 04:02:41;;;;;;;4.47;1.88;;;;;;;20.83;44.36;101299.38;2016207;29;28068;-69
2022/07/20 04:03:43;;;;;;;3.10;1.80;;;;;;;20.93;44.46;101296.00;2016649;29;25608;-69
2022/07/20 04:04:45;;;;;;;3.15;1.95;;;;;;;21.07;43.46;101299.75;2016838;29;24774;-69
2022/07/20 04:05:47;;;;;;;5.35;1.92;;;;;;;21.20;43.89;101303.47;2015443;29;31942;-69
2022/07/20 04:06:49;;;;;;;2.45;1.60;;;;;;;21.32;43.44;101291.81;2015873;29;35556;-69
2022/07/20 04:07:51;;;;;;;4.03;1.95;;;;;;;21.49;42.30;101298.06;2015943;29;27630;-69
2022/07/20 04:08:52;;;;;;;4.75;2.08;;;;;;;21.64;42.14;101299.84;2016971;29;26556;-69
2022/07/20 04:09:56;;;;;;;4.93;1.90;;;;;;;21.81;42.30;101296.00;2016329;29;26973;-69
2022/07/20 04:10:59;;;;;;;3.75;2.03;;;;;;;22.01;41.32;101300.16;2016706;29;20045;-69
2022/07/20 04:12:03;;;;;;;5.00;2.13;;;;;;;22.15;41.37;101292.94;2022907;29;27796;-69
2022/07/20 04:13:07;;;;;;;3.63;1.92;;;;;;;22.31;40.95;101296.44;2016019;29;25570;-69
2022/07/20 04:14:09;;;;;;;6.57;2.20;;;;;;;22.47;40.80;101296.28;2008309;29;34290;-69
2022/07/20 04:15:11;;;;;;;5.80;1.88;;;;;;;22.59;40.72;101294.56;2016043;29;20448;-69
2022/07/20 04:16:13;;;;;;;4.40;1.73;;;;;;;22.80;39.90;101298.53;2016017;29;27336;-69
2022/07/20 04:17:15;;;;;;;3.53;1.65;;;;;;;22.96;39.53;101301.09;2016207;29;25167;-69
2022/07/20 04:18:22;;;;;;;2.80;2.42;;;;;;;23.22;39.09;101288.38;2015402;29;32585;-69
2022/07/20 04:19:23;;;;;;;4.55;1.70;;;;;;;23.44;38.44;101293.19;2008708;29;32034;-69
2022/07/20 04:20:25;;;;;;;6.60;1.90;;;;;;;23.68;38.14;101297.00;2008442;29;27122;-69
2022/07/20 04:21:27;;;;;;;5.82;1.83;;;;;;;23.96;37.63;101296.75;2016256;29;20045;-69
2022/07/20 04:22:29;;;;;;;4.15;1.95;;;;;;;24.13;36.64;101294.63;2016694;29;20129;-69
2022/07/20 04:23:36;;;;;;;5.95;1.83;;;;;;;24.34;37.03;101284.81;2017088;29;20049;-69
2022/07/20 04:24:41;;;;;;;6.05;2.20;;;;;;;24.60;36.23;101295.66;2015957;29;20049;-69
2022/07/20 04:25:43;;;;;;;3.70;1.60;;;;;;;24.80;35.58;101294.16;2016526;29;21329;-69
2022/07/20 04:26:47;;;;;;;8.35;1.83;;;;;;;24.97;36.01;101290.06;2016229;29;20050;-69
2022/07/20 04:27:52;;;;;;;7.00;2.15;;;;;;;24.99;35.04;101285.34;2016748;29;20074;-69
2022/07/20 04:28:53;;;;;;;5.38;1.70;;;;;;;25.29;35.22;101284.81;2016290;29;30222;-69
2022/07/20 04:29:55;;;;;;;3.55;1.90;;;;;;;25.59;34.34;101277.88;2016805;29;20081;-69
2022/07/20 04:30:59;;;;;;;6.45;1.73;;;;;;;25.72;34.37;101278.59;2016516;29;23246;-69
2022/07/20 04:32:02;;;;;;;4.95;2.10;;;;;;;25.95;33.96;101281.38;2015887;29;35967;-69
2022/07/20 04:33:03;;;;;;;3.90;1.98;;;;;;;26.06;33.75;101275.84;2016744;29;26841;-69
2022/07/20 04:34:07;;;;;;;5.72;1.50;;;;;;;26.14;33.05;101282.56;2016947;29;20945;-69
2022/07/20 04:35:10;;;;;;;5.68;1.88;;;;;;;26.06;33.39;101286.84;2016562;29;22961;-70
2022/07/20 04:36:12;;;;;;;4.78;1.88;;;;;;;26.14;32.87;101274.34;2015252;29;21033;-69
2022/07/20 04:37:14;;;;;;;6.40;1.90;;;;;;;26.04;33.37;101283.34;2016449;29;26642;-69
2022/07/20 04:38:21;;;;;;;6.13;2.33;;;;;;;26.23;33.30;101279.91;2016739;29;20173;-69
2022/07/20 04:39:23;;;;;;;4.32;2.08;;;;;;;26.39;32.59;101275.91;2015368;29;28472;-69
2022/07/20 04:40:25;;;;;;;6.93;1.88;;;;;;;26.59;32.45;101277.81;2015951;29;25166;-70
2022/07/20 04:41:26;;;;;;;6.88;2.35;;;;;;;26.77;32.35;101283.63;2017039;29;20049;-69
2022/07/20 04:42:28;;;;;;;5.25;2.20;;;;;;;26.51;32.39;101277.59;2016801;29;20125;-70
2022/07/20 04:43:30;;;;;;;2.58;2.08;;;;;;;26.91;32.23;101282.44;2016497;29;20049;-69
2022/07/20 04:44:32;;;;;;;4.18;2.17;;;;;;;27.20;31.33;101273.50;2015420;29;27700;-69
2022/07/20 04:45:34;;;;;;;6.40;2.22;;;;;;;27.45;31.12;101277.75;2016539;29;28652;-69
2022/07/20 04:46:36;;;;;;;4.15;1.92;;;;;;;27.40;31.26;101278.16;2016714;29;20046;-69
2022/07/20 04:47:38;;;;;;;6.03;1.75;;;;;;;27.75;31.01;101276.00;2016125;29;28229;-69
2022/07/20 04:48:44;;;;;;;3.13;2.10;;;;;;;27.97;30.20;101280.44;2015769;29;33125;-69
2022/07/20 04:49:46;;;;;;;6.07;2.08;;;;;;;28.17;30.33;101285.00;2008697;29;25152;-69
2022/07/20 04:50:50;;;;;;;5.05;1.90;;;;;;;28.59;29.72;101280.28;2015717;29;27576;-70
2022/07/20 04:51:51;;;;;;;6.55;1.80;;;;;;;28.57;29.44;101280.44;2016189;29;21045;-69
2022/07/20 04:52:55;;;;;;;5.50;2.00;;;;;;;28.83;28.82;101277.94;2016631;29;21854;-70
2022/07/20 04:53:57;;;;;;;7.07;1.88;;;;;;;28.87;29.53;101275.78;2016028;29;27100;-69
2022/07/20 04:54:59;;;;;;;4.35;1.95;;;;;;;29.22;28.68;101285.34;2016775;29;20105;-69